sensor_id;sensor_type;location;lat;lon;timestamp;P1;durP1;ratioP1;P2;durP2;ratioP2
6095;SDS011;25081;42.698;23.298;2023-06-26T00:01:16;25.73;;;19.77;;
6095;SDS011;25081;42.698;23.298;2023-06-26T00:03:27;24.00;;;19.70;;
6095;SDS011;25081;42.698;23.298;2023-06-26T00:05:38;21.07;;;17.83;;
6095;SDS011;25081;42.698;23.298;2023-06-26T00:07:48;21.23;;;19.03;;
6095;SDS011;25081;42.698;23.298;2023-06-26T00:09:59;24.20;;;19.17;;
6095;SDS011;25081;42.698;23.298;2023-06-26T00:12:09;23.73;;;18.57;;
6095;SDS011;25081;42.698;23.298;2023-06-26T00:14:20;24.23;;;18.27;;
6095;SDS011;25081;42.698;23.298;2023-06-26T00:16:30;22.20;;;18.30;;
6095;SDS011;25081;42.698;23.298;2023-06-26T00:18:41;25.03;;;17.67;;
6095;SDS011;25081;42.698;23.298;2023-06-26T00:20:52;18.53;;;15.77;;
6095;SDS011;25081;42.698;23.298;2023-06-26T00:23:02;22.00;;;17.20;;
6095;SDS011;25081;42.698;23.298;2023-06-26T00:25:13;18.77;;;16.67;;
6095;SDS011;25081;42.698;23.298;2023-06-26T00:27:24;23.20;;;15.83;;
6095;SDS011;25081;42.698;23.298;2023-06-26T00:29:34;18.37;;;16.00;;
6095;SDS011;25081;42.698;23.298;2023-06-26T00:31:45;19.60;;;16.90;;
6095;SDS011;25081;42.698;23.298;2023-06-26T00:33:56;19.63;;;16.67;;
6095;SDS011;25081;42.698;23.298;2023-06-26T00:36:06;19.13;;;16.77;;
6095;SDS011;25081;42.698;23.298;2023-06-26T00:38:17;18.40;;;15.43;;
6095;SDS011;25081;42.698;23.298;2023-06-26T00:40:28;22.40;;;16.40;;
6095;SDS011;25081;42.698;23.298;2023-06-26T00:42:38;25.53;;;15.67;;
6095;SDS011;25081;42.698;23.298;2023-06-26T00:44:49;18.13;;;16.13;;
6095;SDS011;25081;42.698;23.298;2023-06-26T00:47:00;18.37;;;14.77;;
6095;SDS011;25081;42.698;23.298;2023-06-26T00:49:10;25.80;;;15.70;;
6095;SDS011;25081;42.698;23.298;2023-06-26T00:51:21;24.90;;;16.90;;
6095;SDS011;25081;42.698;23.298;2023-06-26T00:53:32;18.80;;;15.63;;
6095;SDS011;25081;42.698;23.298;2023-06-26T00:55:42;18.93;;;16.00;;
6095;SDS011;25081;42.698;23.298;2023-06-26T00:57:53;21.13;;;16.17;;
6095;SDS011;25081;42.698;23.298;2023-06-26T01:00:05;16.83;;;15.03;;
6095;SDS011;25081;42.698;23.298;2023-06-26T01:02:17;16.23;;;14.53;;
6095;SDS011;25081;42.698;23.298;2023-06-26T01:04:27;17.33;;;14.10;;
6095;SDS011;25081;42.698;23.298;2023-06-26T01:06:38;17.87;;;14.30;;
6095;SDS011;25081;42.698;23.298;2023-06-26T01:08:49;22.07;;;15.63;;
6095;SDS011;25081;42.698;23.298;2023-06-26T01:10:59;17.10;;;14.90;;
6095;SDS011;25081;42.698;23.298;2023-06-26T01:13:10;17.57;;;15.77;;
6095;SDS011;25081;42.698;23.298;2023-06-26T01:15:21;18.20;;;14.27;;
6095;SDS011;25081;42.698;23.298;2023-06-26T01:17:32;18.53;;;15.40;;
6095;SDS011;25081;42.698;23.298;2023-06-26T01:19:42;17.50;;;15.20;;
6095;SDS011;25081;42.698;23.298;2023-06-26T01:21:55;17.40;;;14.30;;
6095;SDS011;25081;42.698;23.298;2023-06-26T01:24:07;23.70;;;15.37;;
6095;SDS011;25081;42.698;23.298;2023-06-26T01:26:17;16.87;;;15.13;;
6095;SDS011;25081;42.698;23.298;2023-06-26T01:28:29;20.60;;;15.90;;
6095;SDS011;25081;42.698;23.298;2023-06-26T01:30:41;18.60;;;16.60;;
6095;SDS011;25081;42.698;23.298;2023-06-26T01:32:50;17.23;;;15.37;;
6095;SDS011;25081;42.698;23.298;2023-06-26T01:35:01;19.60;;;15.60;;
6095;SDS011;25081;42.698;23.298;2023-06-26T01:37:12;20.70;;;16.20;;
6095;SDS011;25081;42.698;23.298;2023-06-26T01:39:22;16.10;;;14.40;;
6095;SDS011;25081;42.698;23.298;2023-06-26T01:41:33;18.13;;;16.20;;
6095;SDS011;25081;42.698;23.298;2023-06-26T01:43:46;19.57;;;15.40;;
6095;SDS011;25081;42.698;23.298;2023-06-26T01:45:58;18.13;;;15.50;;
6095;SDS011;25081;42.698;23.298;2023-06-26T01:48:08;17.80;;;14.73;;
6095;SDS011;25081;42.698;23.298;2023-06-26T01:50:20;20.20;;;14.93;;
6095;SDS011;25081;42.698;23.298;2023-06-26T01:52:31;18.00;;;15.50;;
6095;SDS011;25081;42.698;23.298;2023-06-26T01:54:44;20.67;;;15.37;;
6095;SDS011;25081;42.698;23.298;2023-06-26T01:56:53;18.70;;;14.57;;
6095;SDS011;25081;42.698;23.298;2023-06-26T01:59:04;19.57;;;16.10;;
6095;SDS011;25081;42.698;23.298;2023-06-26T02:01:14;17.93;;;15.70;;
6095;SDS011;25081;42.698;23.298;2023-06-26T02:03:25;22.67;;;15.67;;
6095;SDS011;25081;42.698;23.298;2023-06-26T02:05:36;22.53;;;15.77;;
6095;SDS011;25081;42.698;23.298;2023-06-26T02:07:46;20.50;;;15.90;;
6095;SDS011;25081;42.698;23.298;2023-06-26T02:09:57;19.40;;;15.53;;
6095;SDS011;25081;42.698;23.298;2023-06-26T02:12:08;19.97;;;15.63;;
6095;SDS011;25081;42.698;23.298;2023-06-26T02:14:19;19.80;;;15.67;;
6095;SDS011;25081;42.698;23.298;2023-06-26T02:16:29;19.00;;;16.00;;
6095;SDS011;25081;42.698;23.298;2023-06-26T02:18:40;18.00;;;16.10;;
6095;SDS011;25081;42.698;23.298;2023-06-26T02:20:51;20.27;;;15.50;;
6095;SDS011;25081;42.698;23.298;2023-06-26T02:23:01;19.23;;;16.80;;
6095;SDS011;25081;42.698;23.298;2023-06-26T02:25:12;18.90;;;16.77;;
6095;SDS011;25081;42.698;23.298;2023-06-26T02:27:22;21.83;;;17.47;;
6095;SDS011;25081;42.698;23.298;2023-06-26T02:29:33;21.80;;;17.33;;
6095;SDS011;25081;42.698;23.298;2023-06-26T02:31:44;18.77;;;16.80;;
6095;SDS011;25081;42.698;23.298;2023-06-26T02:33:54;21.10;;;17.20;;
6095;SDS011;25081;42.698;23.298;2023-06-26T02:36:05;17.83;;;15.93;;
6095;SDS011;25081;42.698;23.298;2023-06-26T02:38:16;17.90;;;15.90;;
6095;SDS011;25081;42.698;23.298;2023-06-26T02:40:27;26.60;;;18.97;;
6095;SDS011;25081;42.698;23.298;2023-06-26T02:42:37;20.90;;;18.60;;
6095;SDS011;25081;42.698;23.298;2023-06-26T02:44:48;23.93;;;20.40;;
6095;SDS011;25081;42.698;23.298;2023-06-26T02:46:58;22.60;;;20.07;;
6095;SDS011;25081;42.698;23.298;2023-06-26T02:49:09;23.47;;;20.60;;
6095;SDS011;25081;42.698;23.298;2023-06-26T02:51:19;27.83;;;21.27;;
6095;SDS011;25081;42.698;23.298;2023-06-26T02:53:30;23.57;;;19.77;;
6095;SDS011;25081;42.698;23.298;2023-06-26T02:55:41;24.23;;;19.57;;
6095;SDS011;25081;42.698;23.298;2023-06-26T02:57:52;25.37;;;20.43;;
6095;SDS011;25081;42.698;23.298;2023-06-26T03:00:03;22.90;;;19.53;;
6095;SDS011;25081;42.698;23.298;2023-06-26T03:02:15;32.77;;;28.77;;
6095;SDS011;25081;42.698;23.298;2023-06-26T03:04:25;32.20;;;26.03;;
6095;SDS011;25081;42.698;23.298;2023-06-26T03:06:36;31.50;;;25.63;;
6095;SDS011;25081;42.698;23.298;2023-06-26T03:08:47;27.10;;;19.30;;
6095;SDS011;25081;42.698;23.298;2023-06-26T03:10:57;24.13;;;21.40;;
6095;SDS011;25081;42.698;23.298;2023-06-26T03:13:08;23.30;;;20.87;;
6095;SDS011;25081;42.698;23.298;2023-06-26T03:15:18;28.13;;;23.27;;
6095;SDS011;25081;42.698;23.298;2023-06-26T03:17:29;23.67;;;19.10;;
6095;SDS011;25081;42.698;23.298;2023-06-26T03:19:40;22.70;;;20.10;;
6095;SDS011;25081;42.698;23.298;2023-06-26T03:21:50;21.70;;;19.07;;
6095;SDS011;25081;42.698;23.298;2023-06-26T03:24:01;21.93;;;19.70;;
6095;SDS011;25081;42.698;23.298;2023-06-26T03:26:12;27.57;;;20.07;;
6095;SDS011;25081;42.698;23.298;2023-06-26T03:28:23;25.23;;;20.60;;
6095;SDS011;25081;42.698;23.298;2023-06-26T03:30:34;24.07;;;20.87;;
6095;SDS011;25081;42.698;23.298;2023-06-26T03:32:45;23.97;;;20.40;;
6095;SDS011;25081;42.698;23.298;2023-06-26T03:34:55;25.73;;;19.70;;
6095;SDS011;25081;42.698;23.298;2023-06-26T03:37:06;24.20;;;19.97;;
6095;SDS011;25081;42.698;23.298;2023-06-26T03:39:17;23.73;;;20.70;;
6095;SDS011;25081;42.698;23.298;2023-06-26T03:41:27;23.03;;;20.60;;
6095;SDS011;25081;42.698;23.298;2023-06-26T03:43:38;25.50;;;20.37;;
6095;SDS011;25081;42.698;23.298;2023-06-26T03:45:48;25.40;;;20.97;;
6095;SDS011;25081;42.698;23.298;2023-06-26T03:47:59;24.53;;;20.80;;
6095;SDS011;25081;42.698;23.298;2023-06-26T03:50:10;23.70;;;20.63;;
6095;SDS011;25081;42.698;23.298;2023-06-26T03:52:21;34.77;;;20.07;;
6095;SDS011;25081;42.698;23.298;2023-06-26T03:54:31;22.40;;;20.13;;
6095;SDS011;25081;42.698;23.298;2023-06-26T03:56:42;24.60;;;20.57;;
6095;SDS011;25081;42.698;23.298;2023-06-26T03:58:53;23.10;;;19.73;;
6095;SDS011;25081;42.698;23.298;2023-06-26T04:01:03;22.50;;;19.37;;
6095;SDS011;25081;42.698;23.298;2023-06-26T04:08:12;24.00;;;19.57;;
6095;SDS011;25081;42.698;23.298;2023-06-26T04:10:22;28.80;;;19.80;;
6095;SDS011;25081;42.698;23.298;2023-06-26T04:12:32;19.37;;;17.47;;
6095;SDS011;25081;42.698;23.298;2023-06-26T04:14:43;18.23;;;16.17;;
6095;SDS011;25081;42.698;23.298;2023-06-26T04:16:53;19.43;;;16.03;;
6095;SDS011;25081;42.698;23.298;2023-06-26T04:19:04;18.30;;;16.40;;
6095;SDS011;25081;42.698;23.298;2023-06-26T04:21:14;19.17;;;16.40;;
6095;SDS011;25081;42.698;23.298;2023-06-26T04:23:25;18.70;;;16.10;;
6095;SDS011;25081;42.698;23.298;2023-06-26T04:25:36;16.93;;;15.20;;
6095;SDS011;25081;42.698;23.298;2023-06-26T04:27:46;17.87;;;15.90;;
6095;SDS011;25081;42.698;23.298;2023-06-26T04:29:57;16.40;;;14.30;;
6095;SDS011;25081;42.698;23.298;2023-06-26T04:32:08;15.27;;;13.73;;
6095;SDS011;25081;42.698;23.298;2023-06-26T04:34:18;16.00;;;13.23;;
6095;SDS011;25081;42.698;23.298;2023-06-26T04:36:29;14.60;;;13.20;;
6095;SDS011;25081;42.698;23.298;2023-06-26T04:38:39;15.53;;;13.30;;
6095;SDS011;25081;42.698;23.298;2023-06-26T04:40:50;15.77;;;14.10;;
6095;SDS011;25081;42.698;23.298;2023-06-26T04:43:00;15.63;;;13.73;;
6095;SDS011;25081;42.698;23.298;2023-06-26T04:45:11;17.37;;;14.80;;
6095;SDS011;25081;42.698;23.298;2023-06-26T04:47:22;17.10;;;15.50;;
6095;SDS011;25081;42.698;23.298;2023-06-26T04:49:32;16.00;;;14.47;;
6095;SDS011;25081;42.698;23.298;2023-06-26T04:51:43;17.73;;;14.03;;
6095;SDS011;25081;42.698;23.298;2023-06-26T04:53:53;15.03;;;13.17;;
6095;SDS011;25081;42.698;23.298;2023-06-26T04:56:04;14.40;;;13.00;;
6095;SDS011;25081;42.698;23.298;2023-06-26T04:58:14;16.00;;;14.40;;
6095;SDS011;25081;42.698;23.298;2023-06-26T05:00:25;15.77;;;14.27;;
6095;SDS011;25081;42.698;23.298;2023-06-26T05:02:35;14.77;;;13.27;;
6095;SDS011;25081;42.698;23.298;2023-06-26T05:04:45;16.53;;;14.50;;
6095;SDS011;25081;42.698;23.298;2023-06-26T05:06:56;16.27;;;14.67;;
6095;SDS011;25081;42.698;23.298;2023-06-26T05:09:07;17.03;;;15.30;;
6095;SDS011;25081;42.698;23.298;2023-06-26T05:11:17;17.87;;;15.13;;
6095;SDS011;25081;42.698;23.298;2023-06-26T05:13:28;18.37;;;15.73;;
6095;SDS011;25081;42.698;23.298;2023-06-26T05:15:38;19.17;;;15.30;;
6095;SDS011;25081;42.698;23.298;2023-06-26T05:17:49;23.80;;;16.33;;
6095;SDS011;25081;42.698;23.298;2023-06-26T05:19:59;17.13;;;14.23;;
6095;SDS011;25081;42.698;23.298;2023-06-26T05:22:10;14.97;;;13.37;;
6095;SDS011;25081;42.698;23.298;2023-06-26T05:24:21;16.07;;;14.50;;
6095;SDS011;25081;42.698;23.298;2023-06-26T05:26:32;14.53;;;13.23;;
6095;SDS011;25081;42.698;23.298;2023-06-26T05:28:44;18.10;;;15.07;;
6095;SDS011;25081;42.698;23.298;2023-06-26T05:30:56;16.70;;;15.03;;
6095;SDS011;25081;42.698;23.298;2023-06-26T05:33:07;17.07;;;15.00;;
6095;SDS011;25081;42.698;23.298;2023-06-26T05:35:19;18.20;;;14.73;;
6095;SDS011;25081;42.698;23.298;2023-06-26T05:37:30;17.40;;;13.80;;
6095;SDS011;25081;42.698;23.298;2023-06-26T05:39:42;16.60;;;15.07;;
6095;SDS011;25081;42.698;23.298;2023-06-26T05:41:54;16.37;;;14.77;;
6095;SDS011;25081;42.698;23.298;2023-06-26T05:44:05;17.03;;;15.27;;
6095;SDS011;25081;42.698;23.298;2023-06-26T05:46:15;19.43;;;16.47;;
6095;SDS011;25081;42.698;23.298;2023-06-26T05:48:26;15.87;;;14.27;;
6095;SDS011;25081;42.698;23.298;2023-06-26T05:50:37;16.33;;;14.63;;
6095;SDS011;25081;42.698;23.298;2023-06-26T05:52:49;17.27;;;15.50;;
6095;SDS011;25081;42.698;23.298;2023-06-26T05:55:00;16.20;;;13.20;;
6095;SDS011;25081;42.698;23.298;2023-06-26T05:57:11;14.27;;;12.87;;
6095;SDS011;25081;42.698;23.298;2023-06-26T05:59:22;13.87;;;12.37;;
6095;SDS011;25081;42.698;23.298;2023-06-26T06:01:33;18.23;;;12.93;;
6095;SDS011;25081;42.698;23.298;2023-06-26T06:03:44;15.20;;;12.00;;
6095;SDS011;25081;42.698;23.298;2023-06-26T06:05:55;12.47;;;11.37;;
6095;SDS011;25081;42.698;23.298;2023-06-26T06:08:05;13.37;;;11.47;;
6095;SDS011;25081;42.698;23.298;2023-06-26T06:10:16;14.00;;;11.83;;
6095;SDS011;25081;42.698;23.298;2023-06-26T06:12:27;12.73;;;11.43;;
6095;SDS011;25081;42.698;23.298;2023-06-26T06:14:37;12.43;;;11.23;;
6095;SDS011;25081;42.698;23.298;2023-06-26T06:16:48;14.33;;;11.60;;
6095;SDS011;25081;42.698;23.298;2023-06-26T06:18:58;13.20;;;11.80;;
6095;SDS011;25081;42.698;23.298;2023-06-26T06:21:09;14.20;;;11.57;;
6095;SDS011;25081;42.698;23.298;2023-06-26T06:23:19;12.53;;;11.30;;
6095;SDS011;25081;42.698;23.298;2023-06-26T06:25:30;13.40;;;12.00;;
6095;SDS011;25081;42.698;23.298;2023-06-26T06:27:40;12.97;;;11.50;;
6095;SDS011;25081;42.698;23.298;2023-06-26T06:29:51;13.03;;;11.63;;
6095;SDS011;25081;42.698;23.298;2023-06-26T06:32:01;11.60;;;10.40;;
6095;SDS011;25081;42.698;23.298;2023-06-26T06:34:13;14.03;;;11.37;;
6095;SDS011;25081;42.698;23.298;2023-06-26T06:36:23;14.53;;;12.90;;
6095;SDS011;25081;42.698;23.298;2023-06-26T06:38:34;11.27;;;10.17;;
6095;SDS011;25081;42.698;23.298;2023-06-26T06:40:44;12.77;;;9.60;;
6095;SDS011;25081;42.698;23.298;2023-06-26T06:42:55;11.50;;;9.83;;
6095;SDS011;25081;42.698;23.298;2023-06-26T06:45:06;10.50;;;9.40;;
6095;SDS011;25081;42.698;23.298;2023-06-26T06:47:18;20.53;;;9.70;;
6095;SDS011;25081;42.698;23.298;2023-06-26T06:49:28;9.80;;;8.70;;
6095;SDS011;25081;42.698;23.298;2023-06-26T06:51:39;9.27;;;8.43;;
6095;SDS011;25081;42.698;23.298;2023-06-26T06:53:49;8.93;;;7.80;;
6095;SDS011;25081;42.698;23.298;2023-06-26T06:56:00;8.67;;;7.77;;
6095;SDS011;25081;42.698;23.298;2023-06-26T06:58:10;9.87;;;8.87;;
6095;SDS011;25081;42.698;23.298;2023-06-26T07:00:21;9.00;;;8.20;;
6095;SDS011;25081;42.698;23.298;2023-06-26T07:02:32;9.63;;;8.17;;
6095;SDS011;25081;42.698;23.298;2023-06-26T07:04:42;10.17;;;9.10;;
6095;SDS011;25081;42.698;23.298;2023-06-26T07:06:52;10.53;;;9.40;;
6095;SDS011;25081;42.698;23.298;2023-06-26T07:09:03;11.00;;;8.83;;
6095;SDS011;25081;42.698;23.298;2023-06-26T07:11:14;11.00;;;8.10;;
6095;SDS011;25081;42.698;23.298;2023-06-26T07:13:24;10.97;;;8.60;;
6095;SDS011;25081;42.698;23.298;2023-06-26T07:15:35;9.23;;;8.30;;
6095;SDS011;25081;42.698;23.298;2023-06-26T07:17:46;9.30;;;8.37;;
6095;SDS011;25081;42.698;23.298;2023-06-26T07:19:56;10.30;;;8.67;;
6095;SDS011;25081;42.698;23.298;2023-06-26T07:22:07;13.00;;;11.53;;
6095;SDS011;25081;42.698;23.298;2023-06-26T07:24:17;12.13;;;8.23;;
6095;SDS011;25081;42.698;23.298;2023-06-26T07:26:28;9.50;;;8.50;;
6095;SDS011;25081;42.698;23.298;2023-06-26T07:28:38;10.00;;;7.97;;
6095;SDS011;25081;42.698;23.298;2023-06-26T07:30:49;8.43;;;7.30;;
6095;SDS011;25081;42.698;23.298;2023-06-26T07:32:59;7.70;;;7.00;;
6095;SDS011;25081;42.698;23.298;2023-06-26T07:35:09;8.87;;;7.63;;
6095;SDS011;25081;42.698;23.298;2023-06-26T07:37:20;13.40;;;10.47;;
6095;SDS011;25081;42.698;23.298;2023-06-26T07:39:30;6.23;;;5.60;;
6095;SDS011;25081;42.698;23.298;2023-06-26T07:41:41;8.20;;;7.40;;
6095;SDS011;25081;42.698;23.298;2023-06-26T07:43:51;7.80;;;6.53;;
6095;SDS011;25081;42.698;23.298;2023-06-26T07:46:02;9.27;;;6.13;;
6095;SDS011;25081;42.698;23.298;2023-06-26T07:48:12;8.73;;;6.07;;
6095;SDS011;25081;42.698;23.298;2023-06-26T07:50:23;10.87;;;7.27;;
6095;SDS011;25081;42.698;23.298;2023-06-26T07:52:33;7.23;;;6.53;;
6095;SDS011;25081;42.698;23.298;2023-06-26T07:54:44;7.63;;;6.17;;
6095;SDS011;25081;42.698;23.298;2023-06-26T07:56:55;9.10;;;7.33;;
6095;SDS011;25081;42.698;23.298;2023-06-26T07:59:05;7.50;;;6.70;;
6095;SDS011;25081;42.698;23.298;2023-06-26T08:01:16;9.53;;;6.83;;
6095;SDS011;25081;42.698;23.298;2023-06-26T08:03:26;7.43;;;6.73;;
6095;SDS011;25081;42.698;23.298;2023-06-26T08:05:37;8.90;;;7.40;;
6095;SDS011;25081;42.698;23.298;2023-06-26T08:07:47;7.87;;;7.07;;
6095;SDS011;25081;42.698;23.298;2023-06-26T08:09:57;8.93;;;7.37;;
6095;SDS011;25081;42.698;23.298;2023-06-26T08:12:08;9.67;;;7.50;;
6095;SDS011;25081;42.698;23.298;2023-06-26T08:14:19;11.20;;;8.60;;
6095;SDS011;25081;42.698;23.298;2023-06-26T08:16:29;8.90;;;8.00;;
6095;SDS011;25081;42.698;23.298;2023-06-26T08:18:39;8.50;;;7.20;;
6095;SDS011;25081;42.698;23.298;2023-06-26T08:20:50;8.43;;;7.63;;
6095;SDS011;25081;42.698;23.298;2023-06-26T08:23:01;10.27;;;7.97;;
6095;SDS011;25081;42.698;23.298;2023-06-26T08:25:11;10.90;;;8.47;;
6095;SDS011;25081;42.698;23.298;2023-06-26T08:27:22;9.57;;;7.67;;
6095;SDS011;25081;42.698;23.298;2023-06-26T08:29:32;7.30;;;6.60;;
6095;SDS011;25081;42.698;23.298;2023-06-26T08:31:44;7.87;;;6.70;;
6095;SDS011;25081;42.698;23.298;2023-06-26T08:33:54;7.47;;;6.47;;
6095;SDS011;25081;42.698;23.298;2023-06-26T08:36:05;9.40;;;6.80;;
6095;SDS011;25081;42.698;23.298;2023-06-26T08:38:15;7.80;;;6.13;;
6095;SDS011;25081;42.698;23.298;2023-06-26T08:40:26;6.30;;;5.70;;
6095;SDS011;25081;42.698;23.298;2023-06-26T08:42:36;6.40;;;5.80;;
6095;SDS011;25081;42.698;23.298;2023-06-26T08:44:47;8.67;;;5.40;;
6095;SDS011;25081;42.698;23.298;2023-06-26T08:46:59;8.20;;;5.70;;
6095;SDS011;25081;42.698;23.298;2023-06-26T08:49:12;8.03;;;5.80;;
6095;SDS011;25081;42.698;23.298;2023-06-26T08:51:21;9.87;;;8.23;;
6095;SDS011;25081;42.698;23.298;2023-06-26T08:53:35;8.60;;;6.37;;
6095;SDS011;25081;42.698;23.298;2023-06-26T08:55:44;8.17;;;5.73;;
6095;SDS011;25081;42.698;23.298;2023-06-26T08:57:54;6.80;;;6.10;;
6095;SDS011;25081;42.698;23.298;2023-06-26T09:00:06;8.23;;;5.93;;
6095;SDS011;25081;42.698;23.298;2023-06-26T09:02:17;11.13;;;7.13;;
6095;SDS011;25081;42.698;23.298;2023-06-26T09:04:29;15.90;;;5.80;;
6095;SDS011;25081;42.698;23.298;2023-06-26T09:06:41;9.80;;;6.10;;
6095;SDS011;25081;42.698;23.298;2023-06-26T09:08:52;7.50;;;5.50;;
6095;SDS011;25081;42.698;23.298;2023-06-26T09:11:02;8.80;;;5.90;;
6095;SDS011;25081;42.698;23.298;2023-06-26T09:13:12;8.10;;;6.10;;
6095;SDS011;25081;42.698;23.298;2023-06-26T09:15:23;8.20;;;5.00;;
6095;SDS011;25081;42.698;23.298;2023-06-26T09:17:39;9.60;;;6.20;;
6095;SDS011;25081;42.698;23.298;2023-06-26T09:19:47;7.40;;;5.87;;
6095;SDS011;25081;42.698;23.298;2023-06-26T09:21:57;8.83;;;5.63;;
6095;SDS011;25081;42.698;23.298;2023-06-26T09:24:07;9.40;;;5.63;;
6095;SDS011;25081;42.698;23.298;2023-06-26T09:26:18;6.83;;;5.77;;
6095;SDS011;25081;42.698;23.298;2023-06-26T09:28:28;7.60;;;5.40;;
6095;SDS011;25081;42.698;23.298;2023-06-26T09:30:40;5.40;;;4.90;;
6095;SDS011;25081;42.698;23.298;2023-06-26T09:32:50;7.77;;;5.17;;
6095;SDS011;25081;42.698;23.298;2023-06-26T09:35:02;5.30;;;4.80;;
6095;SDS011;25081;42.698;23.298;2023-06-26T09:37:13;8.20;;;5.60;;
6095;SDS011;25081;42.698;23.298;2023-06-26T09:39:24;9.13;;;5.87;;
6095;SDS011;25081;42.698;23.298;2023-06-26T09:41:35;6.50;;;5.90;;
6095;SDS011;25081;42.698;23.298;2023-06-26T09:43:46;7.90;;;5.70;;
6095;SDS011;25081;42.698;23.298;2023-06-26T09:45:57;7.90;;;6.10;;
6095;SDS011;25081;42.698;23.298;2023-06-26T09:48:08;7.73;;;6.20;;
6095;SDS011;25081;42.698;23.298;2023-06-26T09:50:26;7.83;;;6.43;;
6095;SDS011;25081;42.698;23.298;2023-06-26T09:52:37;5.83;;;5.13;;
6095;SDS011;25081;42.698;23.298;2023-06-26T09:54:47;6.57;;;5.93;;
6095;SDS011;25081;42.698;23.298;2023-06-26T09:57:07;9.20;;;6.77;;
6095;SDS011;25081;42.698;23.298;2023-06-26T09:59:17;7.90;;;5.90;;
6095;SDS011;25081;42.698;23.298;2023-06-26T10:01:28;8.13;;;5.50;;
6095;SDS011;25081;42.698;23.298;2023-06-26T10:03:39;8.50;;;6.50;;
6095;SDS011;25081;42.698;23.298;2023-06-26T10:05:49;7.17;;;5.60;;
6095;SDS011;25081;42.698;23.298;2023-06-26T10:07:59;7.20;;;5.40;;
6095;SDS011;25081;42.698;23.298;2023-06-26T10:10:10;8.03;;;5.53;;
6095;SDS011;25081;42.698;23.298;2023-06-26T10:12:22;8.17;;;6.10;;
6095;SDS011;25081;42.698;23.298;2023-06-26T10:14:33;7.80;;;6.03;;
6095;SDS011;25081;42.698;23.298;2023-06-26T10:16:43;7.93;;;6.30;;
6095;SDS011;25081;42.698;23.298;2023-06-26T10:18:53;6.30;;;5.70;;
6095;SDS011;25081;42.698;23.298;2023-06-26T10:21:05;7.53;;;6.77;;
6095;SDS011;25081;42.698;23.298;2023-06-26T10:23:15;6.30;;;5.70;;
6095;SDS011;25081;42.698;23.298;2023-06-26T10:25:30;7.70;;;6.67;;
6095;SDS011;25081;42.698;23.298;2023-06-26T10:27:41;12.90;;;7.00;;
6095;SDS011;25081;42.698;23.298;2023-06-26T10:30:00;9.23;;;6.30;;
6095;SDS011;25081;42.698;23.298;2023-06-26T10:32:10;9.50;;;6.17;;
6095;SDS011;25081;42.698;23.298;2023-06-26T10:34:21;9.73;;;6.30;;
6095;SDS011;25081;42.698;23.298;2023-06-26T10:36:32;8.10;;;6.70;;
6095;SDS011;25081;42.698;23.298;2023-06-26T10:38:49;8.80;;;7.20;;
6095;SDS011;25081;42.698;23.298;2023-06-26T10:40:59;6.63;;;6.03;;
6095;SDS011;25081;42.698;23.298;2023-06-26T10:43:11;13.70;;;6.60;;
6095;SDS011;25081;42.698;23.298;2023-06-26T10:45:21;6.70;;;6.03;;
6095;SDS011;25081;42.698;23.298;2023-06-26T10:47:32;7.53;;;6.20;;
6095;SDS011;25081;42.698;23.298;2023-06-26T10:49:42;8.50;;;6.93;;
6095;SDS011;25081;42.698;23.298;2023-06-26T10:51:53;7.67;;;6.23;;
6095;SDS011;25081;42.698;23.298;2023-06-26T10:54:03;13.20;;;7.63;;
6095;SDS011;25081;42.698;23.298;2023-06-26T10:56:14;8.10;;;7.27;;
6095;SDS011;25081;42.698;23.298;2023-06-26T10:58:28;7.57;;;6.40;;
6095;SDS011;25081;42.698;23.298;2023-06-26T11:00:43;7.50;;;6.60;;
6095;SDS011;25081;42.698;23.298;2023-06-26T11:02:54;9.37;;;7.00;;
6095;SDS011;25081;42.698;23.298;2023-06-26T11:05:05;7.87;;;7.07;;
6095;SDS011;25081;42.698;23.298;2023-06-26T11:07:17;7.67;;;6.87;;
6095;SDS011;25081;42.698;23.298;2023-06-26T11:09:28;6.53;;;5.90;;
6095;SDS011;25081;42.698;23.298;2023-06-26T11:12:02;8.67;;;7.60;;
6095;SDS011;25081;42.698;23.298;2023-06-26T11:14:14;7.87;;;6.57;;
6095;SDS011;25081;42.698;23.298;2023-06-26T11:16:24;7.23;;;6.53;;
6095;SDS011;25081;42.698;23.298;2023-06-26T11:18:35;8.37;;;7.40;;
6095;SDS011;25081;42.698;23.298;2023-06-26T11:20:45;9.73;;;7.73;;
6095;SDS011;25081;42.698;23.298;2023-06-26T11:22:56;11.93;;;7.70;;
6095;SDS011;25081;42.698;23.298;2023-06-26T11:25:09;8.57;;;6.80;;
6095;SDS011;25081;42.698;23.298;2023-06-26T11:27:19;8.77;;;6.47;;
6095;SDS011;25081;42.698;23.298;2023-06-26T11:29:30;8.00;;;6.43;;
6095;SDS011;25081;42.698;23.298;2023-06-26T11:31:42;9.47;;;6.53;;
6095;SDS011;25081;42.698;23.298;2023-06-26T11:33:52;7.23;;;5.70;;
6095;SDS011;25081;42.698;23.298;2023-06-26T11:36:08;8.63;;;6.23;;
6095;SDS011;25081;42.698;23.298;2023-06-26T11:38:19;7.57;;;6.70;;
6095;SDS011;25081;42.698;23.298;2023-06-26T11:40:30;8.20;;;6.77;;
6095;SDS011;25081;42.698;23.298;2023-06-26T11:42:41;6.57;;;5.97;;
6095;SDS011;25081;42.698;23.298;2023-06-26T11:44:51;7.03;;;5.80;;
6095;SDS011;25081;42.698;23.298;2023-06-26T11:47:02;7.17;;;6.23;;
6095;SDS011;25081;42.698;23.298;2023-06-26T11:49:15;8.40;;;6.63;;
6095;SDS011;25081;42.698;23.298;2023-06-26T11:51:24;8.23;;;6.00;;
6095;SDS011;25081;42.698;23.298;2023-06-26T11:53:39;7.40;;;6.00;;
6095;SDS011;25081;42.698;23.298;2023-06-26T11:55:51;7.50;;;6.43;;
6095;SDS011;25081;42.698;23.298;2023-06-26T11:58:02;7.50;;;6.63;;
6095;SDS011;25081;42.698;23.298;2023-06-26T12:00:14;10.03;;;6.70;;
6095;SDS011;25081;42.698;23.298;2023-06-26T12:02:25;13.87;;;6.73;;
6095;SDS011;25081;42.698;23.298;2023-06-26T12:04:37;9.23;;;6.90;;
6095;SDS011;25081;42.698;23.298;2023-06-26T12:06:52;9.87;;;6.80;;
6095;SDS011;25081;42.698;23.298;2023-06-26T12:08:58;9.03;;;6.80;;
6095;SDS011;25081;42.698;23.298;2023-06-26T12:11:09;9.30;;;7.23;;
6095;SDS011;25081;42.698;23.298;2023-06-26T12:13:19;8.50;;;7.40;;
6095;SDS011;25081;42.698;23.298;2023-06-26T12:15:30;9.30;;;7.13;;
6095;SDS011;25081;42.698;23.298;2023-06-26T12:17:40;15.00;;;7.40;;
6095;SDS011;25081;42.698;23.298;2023-06-26T12:19:51;8.50;;;7.10;;
6095;SDS011;25081;42.698;23.298;2023-06-26T12:22:05;8.63;;;6.33;;
6095;SDS011;25081;42.698;23.298;2023-06-26T12:24:17;8.60;;;6.00;;
6095;SDS011;25081;42.698;23.298;2023-06-26T12:26:26;9.80;;;5.80;;
6095;SDS011;25081;42.698;23.298;2023-06-26T12:28:36;8.17;;;6.30;;
6095;SDS011;25081;42.698;23.298;2023-06-26T12:30:47;9.20;;;6.50;;
6095;SDS011;25081;42.698;23.298;2023-06-26T12:32:58;6.80;;;5.60;;
6095;SDS011;25081;42.698;23.298;2023-06-26T12:35:09;13.10;;;7.27;;
6095;SDS011;25081;42.698;23.298;2023-06-26T12:37:19;7.00;;;6.30;;
6095;SDS011;25081;42.698;23.298;2023-06-26T12:39:30;11.93;;;7.33;;
6095;SDS011;25081;42.698;23.298;2023-06-26T12:41:51;13.17;;;7.37;;
6095;SDS011;25081;42.698;23.298;2023-06-26T12:44:00;10.07;;;6.60;;
6095;SDS011;25081;42.698;23.298;2023-06-26T12:46:10;10.27;;;8.00;;
6095;SDS011;25081;42.698;23.298;2023-06-26T12:48:21;7.77;;;6.60;;
6095;SDS011;25081;42.698;23.298;2023-06-26T12:50:37;16.00;;;8.20;;
6095;SDS011;25081;42.698;23.298;2023-06-26T12:52:48;9.63;;;6.80;;
6095;SDS011;25081;42.698;23.298;2023-06-26T12:54:59;7.80;;;6.93;;
6095;SDS011;25081;42.698;23.298;2023-06-26T12:57:09;8.37;;;6.97;;
6095;SDS011;25081;42.698;23.298;2023-06-26T12:59:20;7.83;;;7.03;;
6095;SDS011;25081;42.698;23.298;2023-06-26T13:01:30;8.63;;;7.43;;